Погода Джульфана неделю

Нахичеванский район, Азербайджан

14 - 20 июля
  • 14июля
    Сегодня
    +21°
    +34°
    Ясно и безоблачно
    ВремяПогодаТемператураВлажностьДавлениеВетер, м/сВероятность осадков
    01:00Ясно и безоблачно+26°C46 %695 мм1.8 м/с2 %
    04:00Ясно и безоблачно+23°C52 %695 мм1.0 м/с2 %
    07:00Ясно и безоблачно+23°C52 %696 мм0.1 м/с2 %
    10:00Ясно и безоблачно+29°C36 %697 мм2.9 м/с2 %
    13:00Ясно и безоблачно+34°C27 %696 мм5.8 м/с2 %
    16:00Ясно и безоблачно+33°C31 %694 мм6.4 м/с4 %
    19:00Ясно и безоблачно+30°C39 %694 мм5.8 м/с2 %
    22:00Ясно и безоблачно+27°C51 %696 мм4.6 м/с2 %
  • 15июля
    Понедельник
    +22°
    +35°
    Практически безоблачно
    ВремяПогодаТемператураВлажностьДавлениеВетер, м/сВероятность осадков
    01:00Ясно и безоблачно+25°C55 %696 мм3.0 м/с2 %
    04:00Ясно и безоблачно+23°C54 %697 мм1.6 м/с2 %
    07:00Ясно и безоблачно+22°C53 %697 мм0.2 м/с2 %
    10:00Ясно и безоблачно+29°C36 %698 мм2.7 м/с2 %
    13:00Практически безоблачно+34°C25 %697 мм6.0 м/с2 %
    16:00Ясно и безоблачно+34°C26 %696 мм8.1 м/с3 %
    19:00Ясно и безоблачно+30°C29 %696 мм5.9 м/с2 %
    22:00Облачно с прояснениями+28°C32 %697 мм3.3 м/с2 %
  • 16июля
    Вторник
    +23°
    +37°
    Ясно и безоблачно
    ВремяПогодаТемператураВлажностьДавлениеВетер, м/сВероятность осадков
    01:00Небольшая облачность+26°C35 %698 мм2.6 м/с2 %
    04:00Ясно и безоблачно+24°C35 %698 мм1.5 м/с2 %
    07:00Ясно и безоблачно+23°C36 %699 мм0.8 м/с2 %
    10:00Ясно и безоблачно+30°C24 %699 мм2.5 м/с2 %
    13:00Ясно и безоблачно+35°C16 %699 мм3.4 м/с2 %
    16:00Ясно и безоблачно+36°C16 %697 мм4.9 м/с2 %
    19:00Ясно и безоблачно+33°C20 %697 мм4.6 м/с2 %
    22:00Ясно и безоблачно+28°C29 %698 мм2.1 м/с2 %
  • 17июля
    Среда
    +23°
    +38°
    Ясно и безоблачно
    ВремяПогодаТемператураВлажностьДавлениеВетер, м/сВероятность осадков
    01:00Ясно и безоблачно+26°C39 %698 мм1.6 м/с2 %
    04:00Ясно и безоблачно+25°C43 %698 мм0.8 м/с2 %
    07:00Ясно и безоблачно+24°C43 %699 мм0.2 м/с2 %
    10:00Ясно и безоблачно+30°C25 %700 мм2.0 м/с2 %
    13:00Ясно и безоблачно+36°C15 %699 мм3.1 м/с2 %
    16:00Ясно и безоблачно+37°C14 %697 мм5.3 м/с2 %
    19:00Ясно и безоблачно+34°C20 %697 мм6.2 м/с2 %
    22:00Ясно и безоблачно+29°C29 %698 мм4.0 м/с2 %
  • 18июля
    Четверг
    +23°
    +36°
    Ясно и безоблачно
    ВремяПогодаТемператураВлажностьДавлениеВетер, м/сВероятность осадков
    01:00Ясно и безоблачно+27°C36 %698 мм1.9 м/с2 %
    04:00Ясно и безоблачно+25°C37 %698 мм1.9 м/с2 %
    07:00Ясно и безоблачно+25°C36 %699 мм1.0 м/с2 %
    10:00Ясно и безоблачно+31°C28 %699 мм4.7 м/с2 %
    13:00Ясно и безоблачно+35°C20 %698 мм5.7 м/с2 %
    16:00Ясно и безоблачно+36°C19 %697 мм7.2 м/с2 %
    19:00Ясно и безоблачно+32°C27 %697 мм7.0 м/с2 %
    22:00Ясно и безоблачно+29°C41 %698 мм3.4 м/с2 %
Мы используем cookies
Соглашаюсь